Terminal Aerodrome Forecast
Issued by NWS

Home | Current Version | Previous Version | Text Only | Print | Product List | Glossary On
Versions: 1 2 3 4 5 6 7 8 9 10 11 12 13 14 15 16 17 18 19
000
FTUS42 KFFC 020520
TAFRYY
TAF
KRYY 020520Z 0206/0306 VRB03KT P6SM VCSH SCT025 BKN100
     FM020900 VRB03KT 6SM BR BKN006
      TEMPO 0209/0213 SCT006 BKN100
     FM021400 29004KT P6SM SCT015 BKN030
     FM021600 30006KT P6SM VCSH SCT035 BKN080 PROB30 0218/0224 6SM
      TSRA BKN035CB
     FM030200 00000KT P6SM FEW040 SCT080 SCT250
      AMD NOT SKED TIL 021200=

USA.gov is the U.S. government's official web portal to all federal, state and local government web resources and services.